EDT,Max TemperatureF,Mean TemperatureF,Min TemperatureF,Max Dew PointF,MeanDew PointF,Min DewpointF,Max Humidity, Mean Humidity, Min Humidity, Max Sea Level PressureIn, Mean Sea Level PressureIn, Min Sea Level PressureIn, Max VisibilityMiles, Mean VisibilityMiles, Min VisibilityMiles, Max Wind SpeedMPH, Mean Wind SpeedMPH, Max Gust SpeedMPH,PrecipitationIn, CloudCover, Events, WindDirDegrees
2012-5-1,55,52,48,55,49,41,100,91,68,30.23,30.06,29.95,10,5,1,17,12,25,0.30,8,Rain,106
2012-5-2,55,50,46,49,46,43,93,85,72,30.20,30.17,30.11,10,10,10,15,9,21,0.00,8,,80
2012-5-3,51,50,48,50,49,48,100,97,93,30.19,30.15,30.12,10,4,1,13,8,,0.17,8,Rain,119
2012-5-4,57,52,50,56,53,50,100,99,93,30.12,29.98,29.90,7,2,0,10,5,,0.02,8,Fog-Rain,156
2012-5-5,55,53,51,54,52,50,100,97,89,30.06,29.98,29.91,10,5,1,8,4,,0.00,8,,114
2012-5-6,57,54,48,53,50,47,100,86,74,30.13,30.09,30.06,10,9,7,12,6,,0.00,5,,137
2012-5-7,61,53,46,51,48,46,100,85,67,30.16,30.13,30.11,10,10,8,13,3,,0.00,3,,197
2012-5-8,57,55,53,55,51,48,100,87,74,30.12,30.00,29.90,10,8,2,21,9,28,0.02,8,Rain,162
2012-5-9,59,55,53,58,56,54,100,100,94,29.90,29.75,29.58,3,2,0,15,5,,2.31,8,Fog-Rain,180
2012-5-10,66,58,48,57,51,39,100,84,51,29.77,29.53,29.43,10,8,2,17,6,26,0.30,7,Rain,303
2012-5-11,66,56,46,45,40,31,89,61,27,30.06,29.91,29.78,10,10,10,18,9,26,0.00,1,,269
2012-5-12,72,58,43,52,43,33,89,57,31,30.19,30.13,30.06,10,10,10,16,8,24,0.00,0,,260
2012-5-13,72,60,50,56,53,48,96,78,56,30.18,30.14,30.11,10,9,7,9,3,,0.00,0,,209
2012-5-14,66,62,57,61,57,55,93,87,78,30.17,30.14,30.09,10,9,6,10,4,,0.00,5,,183
2012-5-15,63,60,57,60,57,55,100,94,78,30.17,30.06,29.97,10,5,0,18,7,25,0.57,7,Fog-Rain,135
2012-5-16,66,60,55,64,59,55,100,99,90,29.97,29.90,29.84,7,1,0,20,4,106,0.67,7,Fog-Rain,172
2012-5-17,72,62,52,57,49,38,100,76,29,30.14,29.98,29.89,10,7,0,18,5,25,0.00,2,Fog,338
2012-5-18,66,54,45,50,44,39,100,70,39,30.25,30.20,30.15,10,9,5,10,4,,0.00,0,,95
2012-5-19,70,57,46,50,46,41,89,69,43,30.18,30.15,30.12,10,9,1,15,5,,0.00,0,,71
2012-5-20,72,60,50,52,46,35,94,68,28,30.28,30.22,30.16,10,8,0,15,5,21,0.00,0,Fog,57
2012-5-21,68,62,55,65,58,46,100,92,67,30.25,30.16,30.03,10,3,0,15,7,23,0.00,8,Fog-Rain,72
2012-5-22,66,63,60,64,62,60,100,98,93,30.02,29.88,29.79,10,3,0,14,8,20,0.39,8,Fog-Rain,71
2012-5-23,71,65,59,63,61,57,100,93,75,30.06,29.93,29.85,10,6,1,9,2,,0.00,5,,229
2012-5-24,64,60,57,61,59,55,100,96,87,30.25,30.17,30.07,10,3,0,13,5,,0.00,5,Fog,113
2012-5-25,66,60,57,63,60,57,100,95,87,30.25,30.20,30.14,10,2,0,12,6,,0.03,8,Fog-Rain,91
2012-5-26,73,66,60,67,63,60,100,92,81,30.14,30.12,30.07,10,3,0,9,3,,0.06,4,Fog-Rain,210
2012-5-27,78,70,62,64,61,56,97,83,48,30.14,30.09,30.04,10,8,2,10,3,,0.00,1,,106
2012-5-28,75,68,62,68,64,60,100,93,78,30.01,29.96,29.93,10,3,0,13,4,,0.00,5,Fog,148
2012-5-29,80,70,60,70,63,60,100,91,74,29.93,29.84,29.73,9,3,0,14,5,16,0.01,3,Fog,143
2012-5-30,75,66,60,67,63,59,100,88,71,29.75,29.74,29.71,9,6,2,6,2,,0.00,3,Rain,219
2012-5-31,81,69,57,63,55,47,100,78,34,29.90,29.74,29.70,10,4,0,15,2,20,0.00,2,Fog,333